sensor_id;sensor_type;location;lat;lon;timestamp;P1;durP1;ratioP1;P2;durP2;ratioP2
23496;SDS011;11925;48.122;11.560;2023-05-03T00:00:06;9.02;;;5.18;;
23496;SDS011;11925;48.122;11.560;2023-05-03T00:02:35;4.97;;;4.40;;
23496;SDS011;11925;48.122;11.560;2023-05-03T00:05:06;5.88;;;4.22;;
23496;SDS011;11925;48.122;11.560;2023-05-03T00:07:40;4.95;;;4.30;;
23496;SDS011;11925;48.122;11.560;2023-05-03T00:10:10;6.07;;;4.43;;
23496;SDS011;11925;48.122;11.560;2023-05-03T00:12:41;6.40;;;4.05;;
23496;SDS011;11925;48.122;11.560;2023-05-03T00:15:12;4.95;;;4.18;;
23496;SDS011;11925;48.122;11.560;2023-05-03T00:17:40;6.10;;;4.10;;
23496;SDS011;11925;48.122;11.560;2023-05-03T00:20:09;5.35;;;4.55;;
23496;SDS011;11925;48.122;11.560;2023-05-03T00:22:38;5.85;;;4.40;;
23496;SDS011;11925;48.122;11.560;2023-05-03T00:25:06;4.55;;;3.70;;
23496;SDS011;11925;48.122;11.560;2023-05-03T00:27:36;6.38;;;4.22;;
23496;SDS011;11925;48.122;11.560;2023-05-03T00:30:05;6.95;;;4.43;;
23496;SDS011;11925;48.122;11.560;2023-05-03T00:32:36;6.65;;;4.68;;
23496;SDS011;11925;48.122;11.560;2023-05-03T00:35:05;5.15;;;4.30;;
23496;SDS011;11925;48.122;11.560;2023-05-03T00:37:34;5.35;;;4.68;;
23496;SDS011;11925;48.122;11.560;2023-05-03T00:40:04;4.63;;;4.10;;
23496;SDS011;11925;48.122;11.560;2023-05-03T00:42:34;5.47;;;3.95;;
23496;SDS011;11925;48.122;11.560;2023-05-03T00:45:03;5.55;;;4.50;;
23496;SDS011;11925;48.122;11.560;2023-05-03T00:47:32;5.25;;;4.03;;
23496;SDS011;11925;48.122;11.560;2023-05-03T00:50:03;4.72;;;3.63;;
23496;SDS011;11925;48.122;11.560;2023-05-03T00:52:33;5.00;;;4.40;;
23496;SDS011;11925;48.122;11.560;2023-05-03T00:55:01;5.00;;;3.80;;
23496;SDS011;11925;48.122;11.560;2023-05-03T00:57:30;5.15;;;4.00;;
23496;SDS011;11925;48.122;11.560;2023-05-03T00:59:58;5.28;;;4.03;;
23496;SDS011;11925;48.122;11.560;2023-05-03T01:02:27;4.60;;;3.72;;
23496;SDS011;11925;48.122;11.560;2023-05-03T01:04:56;5.40;;;4.00;;
23496;SDS011;11925;48.122;11.560;2023-05-03T01:07:29;4.85;;;4.00;;
23496;SDS011;11925;48.122;11.560;2023-05-03T01:10:07;4.10;;;3.63;;
23496;SDS011;11925;48.122;11.560;2023-05-03T01:12:51;4.63;;;3.55;;
23496;SDS011;11925;48.122;11.560;2023-05-03T01:15:27;6.40;;;3.90;;
23496;SDS011;11925;48.122;11.560;2023-05-03T01:18:13;5.05;;;3.83;;
23496;SDS011;11925;48.122;11.560;2023-05-03T01:20:46;4.03;;;3.40;;
23496;SDS011;11925;48.122;11.560;2023-05-03T01:23:21;4.33;;;3.87;;
23496;SDS011;11925;48.122;11.560;2023-05-03T01:25:58;5.60;;;3.53;;
23496;SDS011;11925;48.122;11.560;2023-05-03T01:28:26;4.65;;;3.15;;
23496;SDS011;11925;48.122;11.560;2023-05-03T01:30:55;3.92;;;3.22;;
23496;SDS011;11925;48.122;11.560;2023-05-03T01:33:28;5.13;;;3.15;;
23496;SDS011;11925;48.122;11.560;2023-05-03T01:36:04;4.93;;;3.33;;
23496;SDS011;11925;48.122;11.560;2023-05-03T01:38:38;3.75;;;2.95;;
23496;SDS011;11925;48.122;11.560;2023-05-03T01:41:09;5.85;;;3.90;;
23496;SDS011;11925;48.122;11.560;2023-05-03T01:43:40;3.75;;;3.35;;
23496;SDS011;11925;48.122;11.560;2023-05-03T01:46:10;3.60;;;2.90;;
23496;SDS011;11925;48.122;11.560;2023-05-03T01:48:42;4.45;;;3.13;;
23496;SDS011;11925;48.122;11.560;2023-05-03T01:51:11;4.47;;;3.20;;
23496;SDS011;11925;48.122;11.560;2023-05-03T01:53:39;4.03;;;3.30;;
23496;SDS011;11925;48.122;11.560;2023-05-03T01:56:09;4.43;;;3.17;;
23496;SDS011;11925;48.122;11.560;2023-05-03T01:58:38;4.90;;;3.50;;
23496;SDS011;11925;48.122;11.560;2023-05-03T02:01:06;4.80;;;3.65;;
23496;SDS011;11925;48.122;11.560;2023-05-03T02:03:34;7.90;;;4.30;;
23496;SDS011;11925;48.122;11.560;2023-05-03T02:06:03;5.55;;;4.10;;
23496;SDS011;11925;48.122;11.560;2023-05-03T02:08:31;5.78;;;3.78;;
23496;SDS011;11925;48.122;11.560;2023-05-03T02:10:59;6.05;;;4.10;;
23496;SDS011;11925;48.122;11.560;2023-05-03T02:13:29;5.63;;;4.00;;
23496;SDS011;11925;48.122;11.560;2023-05-03T02:15:58;5.43;;;3.88;;
23496;SDS011;11925;48.122;11.560;2023-05-03T02:18:28;5.68;;;3.38;;
23496;SDS011;11925;48.122;11.560;2023-05-03T02:20:56;5.80;;;4.07;;
23496;SDS011;11925;48.122;11.560;2023-05-03T02:23:25;5.90;;;4.15;;
23496;SDS011;11925;48.122;11.560;2023-05-03T02:25:53;7.68;;;4.18;;
23496;SDS011;11925;48.122;11.560;2023-05-03T02:28:22;6.10;;;4.32;;
23496;SDS011;11925;48.122;11.560;2023-05-03T02:30:51;6.13;;;3.85;;
23496;SDS011;11925;48.122;11.560;2023-05-03T02:33:20;7.22;;;4.40;;
23496;SDS011;11925;48.122;11.560;2023-05-03T02:35:48;6.63;;;3.92;;
23496;SDS011;11925;48.122;11.560;2023-05-03T02:38:17;5.90;;;3.83;;
23496;SDS011;11925;48.122;11.560;2023-05-03T02:40:45;7.22;;;4.30;;
23496;SDS011;11925;48.122;11.560;2023-05-03T02:43:13;6.05;;;3.70;;
23496;SDS011;11925;48.122;11.560;2023-05-03T02:45:42;7.05;;;3.95;;
23496;SDS011;11925;48.122;11.560;2023-05-03T02:48:12;6.78;;;3.88;;
23496;SDS011;11925;48.122;11.560;2023-05-03T02:50:42;4.47;;;3.53;;
23496;SDS011;11925;48.122;11.560;2023-05-03T02:53:10;6.00;;;3.63;;
23496;SDS011;11925;48.122;11.560;2023-05-03T02:55:38;6.25;;;3.33;;
23496;SDS011;11925;48.122;11.560;2023-05-03T02:58:07;4.68;;;3.53;;
23496;SDS011;11925;48.122;11.560;2023-05-03T03:00:36;4.93;;;3.60;;
23496;SDS011;11925;48.122;11.560;2023-05-03T03:03:04;5.93;;;4.15;;
23496;SDS011;11925;48.122;11.560;2023-05-03T03:05:34;5.50;;;3.35;;
23496;SDS011;11925;48.122;11.560;2023-05-03T03:08:03;4.47;;;3.15;;
23496;SDS011;11925;48.122;11.560;2023-05-03T03:10:32;6.88;;;3.63;;
23496;SDS011;11925;48.122;11.560;2023-05-03T03:13:01;4.55;;;3.33;;
23496;SDS011;11925;48.122;11.560;2023-05-03T03:15:35;5.78;;;3.65;;
23496;SDS011;11925;48.122;11.560;2023-05-03T03:18:04;6.70;;;3.88;;
23496;SDS011;11925;48.122;11.560;2023-05-03T03:20:35;6.10;;;3.33;;
23496;SDS011;11925;48.122;11.560;2023-05-03T03:23:04;4.60;;;3.58;;
23496;SDS011;11925;48.122;11.560;2023-05-03T03:25:32;6.47;;;3.28;;
23496;SDS011;11925;48.122;11.560;2023-05-03T03:28:01;6.90;;;3.28;;
23496;SDS011;11925;48.122;11.560;2023-05-03T03:30:30;4.57;;;3.08;;
23496;SDS011;11925;48.122;11.560;2023-05-03T03:33:17;4.30;;;3.30;;
23496;SDS011;11925;48.122;11.560;2023-05-03T03:35:52;4.50;;;3.10;;
23496;SDS011;11925;48.122;11.560;2023-05-03T03:38:25;4.57;;;3.35;;
23496;SDS011;11925;48.122;11.560;2023-05-03T03:40:59;6.20;;;2.80;;
23496;SDS011;11925;48.122;11.560;2023-05-03T03:43:28;4.40;;;2.92;;
23496;SDS011;11925;48.122;11.560;2023-05-03T03:45:57;4.95;;;3.10;;
23496;SDS011;11925;48.122;11.560;2023-05-03T03:48:25;3.65;;;2.70;;
23496;SDS011;11925;48.122;11.560;2023-05-03T03:50:55;4.43;;;2.95;;
23496;SDS011;11925;48.122;11.560;2023-05-03T03:53:31;4.75;;;3.08;;
23496;SDS011;11925;48.122;11.560;2023-05-03T03:55:59;5.25;;;2.80;;
23496;SDS011;11925;48.122;11.560;2023-05-03T03:58:29;4.20;;;3.00;;
23496;SDS011;11925;48.122;11.560;2023-05-03T04:00:59;4.00;;;2.92;;
23496;SDS011;11925;48.122;11.560;2023-05-03T04:03:28;4.00;;;2.78;;
23496;SDS011;11925;48.122;11.560;2023-05-03T04:05:59;4.13;;;2.70;;
23496;SDS011;11925;48.122;11.560;2023-05-03T04:08:28;4.57;;;2.80;;
23496;SDS011;11925;48.122;11.560;2023-05-03T04:10:57;3.90;;;2.90;;
23496;SDS011;11925;48.122;11.560;2023-05-03T04:13:25;5.68;;;3.42;;
23496;SDS011;11925;48.122;11.560;2023-05-03T04:15:55;6.28;;;3.55;;
23496;SDS011;11925;48.122;11.560;2023-05-03T04:18:24;7.72;;;3.42;;
23496;SDS011;11925;48.122;11.560;2023-05-03T04:20:55;6.53;;;3.92;;
23496;SDS011;11925;48.122;11.560;2023-05-03T04:23:26;6.75;;;4.05;;
23496;SDS011;11925;48.122;11.560;2023-05-03T04:25:54;8.35;;;4.60;;
23496;SDS011;11925;48.122;11.560;2023-05-03T04:28:25;10.35;;;4.70;;
23496;SDS011;11925;48.122;11.560;2023-05-03T04:30:54;7.55;;;4.45;;
23496;SDS011;11925;48.122;11.560;2023-05-03T04:35:59;7.20;;;4.30;;
23496;SDS011;11925;48.122;11.560;2023-05-03T04:38:29;6.80;;;4.07;;
23496;SDS011;11925;48.122;11.560;2023-05-03T04:41:00;6.18;;;4.40;;
23496;SDS011;11925;48.122;11.560;2023-05-03T04:43:29;6.00;;;3.88;;
23496;SDS011;11925;48.122;11.560;2023-05-03T04:45:58;5.45;;;3.78;;
23496;SDS011;11925;48.122;11.560;2023-05-03T04:48:28;4.70;;;3.45;;
23496;SDS011;11925;48.122;11.560;2023-05-03T04:50:57;5.43;;;3.80;;
23496;SDS011;11925;48.122;11.560;2023-05-03T04:53:25;4.63;;;3.53;;
23496;SDS011;11925;48.122;11.560;2023-05-03T04:56:09;9.70;;;5.38;;
23496;SDS011;11925;48.122;11.560;2023-05-03T04:58:39;9.57;;;6.38;;
23496;SDS011;11925;48.122;11.560;2023-05-03T05:01:08;9.70;;;6.97;;
23496;SDS011;11925;48.122;11.560;2023-05-03T05:03:36;22.38;;;12.82;;
23496;SDS011;11925;48.122;11.560;2023-05-03T05:06:10;17.02;;;9.63;;
23496;SDS011;11925;48.122;11.560;2023-05-03T05:08:40;15.27;;;9.13;;
23496;SDS011;11925;48.122;11.560;2023-05-03T05:11:12;13.23;;;9.00;;
23496;SDS011;11925;48.122;11.560;2023-05-03T05:13:41;13.20;;;9.40;;
23496;SDS011;11925;48.122;11.560;2023-05-03T05:16:10;13.60;;;9.02;;
23496;SDS011;11925;48.122;11.560;2023-05-03T05:18:42;15.52;;;9.43;;
23496;SDS011;11925;48.122;11.560;2023-05-03T05:21:15;13.88;;;8.95;;
23496;SDS011;11925;48.122;11.560;2023-05-03T05:23:43;14.43;;;9.40;;
23496;SDS011;11925;48.122;11.560;2023-05-03T05:26:14;14.00;;;9.43;;
23496;SDS011;11925;48.122;11.560;2023-05-03T05:28:43;13.07;;;8.98;;
23496;SDS011;11925;48.122;11.560;2023-05-03T05:31:11;11.52;;;8.18;;
23496;SDS011;11925;48.122;11.560;2023-05-03T05:33:41;13.40;;;9.05;;
23496;SDS011;11925;48.122;11.560;2023-05-03T05:36:10;13.35;;;8.68;;
23496;SDS011;11925;48.122;11.560;2023-05-03T05:38:39;14.30;;;9.15;;
23496;SDS011;11925;48.122;11.560;2023-05-03T05:41:08;14.27;;;8.55;;
23496;SDS011;11925;48.122;11.560;2023-05-03T05:43:39;17.98;;;9.43;;
23496;SDS011;11925;48.122;11.560;2023-05-03T05:46:08;14.45;;;8.70;;
23496;SDS011;11925;48.122;11.560;2023-05-03T05:48:36;14.02;;;9.20;;
23496;SDS011;11925;48.122;11.560;2023-05-03T05:51:05;15.70;;;9.05;;
23496;SDS011;11925;48.122;11.560;2023-05-03T05:53:34;14.77;;;9.43;;
23496;SDS011;11925;48.122;11.560;2023-05-03T05:56:02;14.52;;;8.90;;
23496;SDS011;11925;48.122;11.560;2023-05-03T05:58:32;12.30;;;8.93;;
23496;SDS011;11925;48.122;11.560;2023-05-03T06:01:06;15.02;;;8.95;;
23496;SDS011;11925;48.122;11.560;2023-05-03T06:06:06;16.13;;;9.45;;
23496;SDS011;11925;48.122;11.560;2023-05-03T06:08:35;14.73;;;9.25;;
23496;SDS011;11925;48.122;11.560;2023-05-03T06:11:04;14.70;;;9.50;;
23496;SDS011;11925;48.122;11.560;2023-05-03T06:13:33;18.92;;;10.20;;
23496;SDS011;11925;48.122;11.560;2023-05-03T06:16:06;16.13;;;9.80;;
23496;SDS011;11925;48.122;11.560;2023-05-03T06:18:35;17.65;;;10.55;;
23496;SDS011;11925;48.122;11.560;2023-05-03T06:21:05;16.15;;;9.43;;
23496;SDS011;11925;48.122;11.560;2023-05-03T06:23:35;14.23;;;8.98;;
23496;SDS011;11925;48.122;11.560;2023-05-03T06:26:06;15.38;;;9.98;;
23496;SDS011;11925;48.122;11.560;2023-05-03T06:28:35;16.42;;;9.25;;
23496;SDS011;11925;48.122;11.560;2023-05-03T06:31:03;16.52;;;10.57;;
23496;SDS011;11925;48.122;11.560;2023-05-03T06:33:33;17.38;;;10.60;;
23496;SDS011;11925;48.122;11.560;2023-05-03T06:36:03;17.40;;;10.50;;
23496;SDS011;11925;48.122;11.560;2023-05-03T06:38:32;16.13;;;10.60;;
23496;SDS011;11925;48.122;11.560;2023-05-03T06:41:02;19.05;;;11.32;;
23496;SDS011;11925;48.122;11.560;2023-05-03T06:43:31;19.10;;;10.63;;
23496;SDS011;11925;48.122;11.560;2023-05-03T06:46:01;16.88;;;10.52;;
23496;SDS011;11925;48.122;11.560;2023-05-03T06:48:30;17.63;;;11.35;;
23496;SDS011;11925;48.122;11.560;2023-05-03T06:51:00;17.08;;;10.93;;
23496;SDS011;11925;48.122;11.560;2023-05-03T06:53:28;18.02;;;10.98;;
23496;SDS011;11925;48.122;11.560;2023-05-03T06:55:57;18.08;;;11.55;;
23496;SDS011;11925;48.122;11.560;2023-05-03T06:58:25;19.48;;;11.68;;
23496;SDS011;11925;48.122;11.560;2023-05-03T07:00:53;19.42;;;10.68;;
23496;SDS011;11925;48.122;11.560;2023-05-03T07:03:22;18.88;;;11.30;;
23496;SDS011;11925;48.122;11.560;2023-05-03T07:05:50;18.05;;;10.63;;
23496;SDS011;11925;48.122;11.560;2023-05-03T07:08:20;20.90;;;11.35;;
23496;SDS011;11925;48.122;11.560;2023-05-03T07:10:48;21.48;;;11.57;;
23496;SDS011;11925;48.122;11.560;2023-05-03T07:13:17;19.48;;;11.85;;
23496;SDS011;11925;48.122;11.560;2023-05-03T07:15:45;20.98;;;11.60;;
23496;SDS011;11925;48.122;11.560;2023-05-03T07:18:13;20.58;;;11.85;;
23496;SDS011;11925;48.122;11.560;2023-05-03T07:20:42;16.83;;;10.38;;
23496;SDS011;11925;48.122;11.560;2023-05-03T07:23:11;18.85;;;11.57;;
23496;SDS011;11925;48.122;11.560;2023-05-03T07:25:41;20.35;;;11.30;;
23496;SDS011;11925;48.122;11.560;2023-05-03T07:28:11;17.83;;;10.75;;
23496;SDS011;11925;48.122;11.560;2023-05-03T07:30:39;19.15;;;11.73;;
23496;SDS011;11925;48.122;11.560;2023-05-03T07:33:07;21.05;;;11.43;;
23496;SDS011;11925;48.122;11.560;2023-05-03T07:35:36;20.10;;;11.15;;
23496;SDS011;11925;48.122;11.560;2023-05-03T07:38:04;19.48;;;11.27;;
23496;SDS011;11925;48.122;11.560;2023-05-03T07:40:33;19.38;;;11.10;;
23496;SDS011;11925;48.122;11.560;2023-05-03T07:43:02;18.80;;;11.18;;
23496;SDS011;11925;48.122;11.560;2023-05-03T07:45:31;19.13;;;11.32;;
23496;SDS011;11925;48.122;11.560;2023-05-03T07:47:59;18.52;;;11.10;;
23496;SDS011;11925;48.122;11.560;2023-05-03T07:50:27;17.77;;;10.63;;
23496;SDS011;11925;48.122;11.560;2023-05-03T07:52:56;17.58;;;11.23;;
23496;SDS011;11925;48.122;11.560;2023-05-03T07:55:25;20.95;;;11.27;;
23496;SDS011;11925;48.122;11.560;2023-05-03T07:57:54;19.40;;;11.98;;
23496;SDS011;11925;48.122;11.560;2023-05-03T08:00:26;21.67;;;11.88;;
23496;SDS011;11925;48.122;11.560;2023-05-03T08:02:54;19.45;;;12.00;;
23496;SDS011;11925;48.122;11.560;2023-05-03T08:05:23;19.17;;;11.43;;
23496;SDS011;11925;48.122;11.560;2023-05-03T08:07:51;20.25;;;12.02;;
23496;SDS011;11925;48.122;11.560;2023-05-03T08:10:20;20.92;;;12.15;;
23496;SDS011;11925;48.122;11.560;2023-05-03T08:12:48;22.30;;;12.25;;
23496;SDS011;11925;48.122;11.560;2023-05-03T08:15:16;21.95;;;12.63;;
23496;SDS011;11925;48.122;11.560;2023-05-03T08:17:46;21.13;;;12.15;;
23496;SDS011;11925;48.122;11.560;2023-05-03T08:20:14;21.38;;;12.65;;
23496;SDS011;11925;48.122;11.560;2023-05-03T08:22:43;23.88;;;13.55;;
23496;SDS011;11925;48.122;11.560;2023-05-03T08:25:11;20.90;;;13.30;;
23496;SDS011;11925;48.122;11.560;2023-05-03T08:27:42;27.95;;;13.38;;
23496;SDS011;11925;48.122;11.560;2023-05-03T08:30:10;25.55;;;14.15;;
23496;SDS011;11925;48.122;11.560;2023-05-03T08:32:39;22.27;;;12.52;;
23496;SDS011;11925;48.122;11.560;2023-05-03T08:35:09;24.58;;;13.15;;
23496;SDS011;11925;48.122;11.560;2023-05-03T08:37:39;23.40;;;12.93;;
23496;SDS011;11925;48.122;11.560;2023-05-03T08:40:09;23.05;;;13.45;;
23496;SDS011;11925;48.122;11.560;2023-05-03T08:42:40;25.58;;;13.65;;
23496;SDS011;11925;48.122;11.560;2023-05-03T08:45:10;23.80;;;13.98;;
23496;SDS011;11925;48.122;11.560;2023-05-03T08:47:40;24.77;;;13.40;;
23496;SDS011;11925;48.122;11.560;2023-05-03T08:50:12;23.63;;;13.32;;
23496;SDS011;11925;48.122;11.560;2023-05-03T08:52:42;21.27;;;13.45;;
23496;SDS011;11925;48.122;11.560;2023-05-03T08:55:11;24.25;;;13.20;;
23496;SDS011;11925;48.122;11.560;2023-05-03T08:57:39;23.75;;;13.90;;
23496;SDS011;11925;48.122;11.560;2023-05-03T09:00:08;25.55;;;14.13;;
23496;SDS011;11925;48.122;11.560;2023-05-03T09:02:39;24.27;;;13.93;;
23496;SDS011;11925;48.122;11.560;2023-05-03T09:08:01;23.13;;;13.82;;
23496;SDS011;11925;48.122;11.560;2023-05-03T09:10:31;27.05;;;13.95;;
23496;SDS011;11925;48.122;11.560;2023-05-03T09:13:01;24.48;;;14.63;;
23496;SDS011;11925;48.122;11.560;2023-05-03T09:15:30;25.02;;;14.35;;
23496;SDS011;11925;48.122;11.560;2023-05-03T09:18:08;27.10;;;14.93;;
23496;SDS011;11925;48.122;11.560;2023-05-03T09:20:40;27.35;;;15.50;;
23496;SDS011;11925;48.122;11.560;2023-05-03T09:23:17;28.13;;;16.67;;
23496;SDS011;11925;48.122;11.560;2023-05-03T09:25:46;24.85;;;14.88;;
23496;SDS011;11925;48.122;11.560;2023-05-03T09:28:17;24.73;;;15.50;;
23496;SDS011;11925;48.122;11.560;2023-05-03T09:30:46;26.27;;;15.77;;
23496;SDS011;11925;48.122;11.560;2023-05-03T09:33:15;23.92;;;14.43;;
23496;SDS011;11925;48.122;11.560;2023-05-03T09:35:58;24.83;;;15.40;;
23496;SDS011;11925;48.122;11.560;2023-05-03T09:38:28;26.23;;;15.18;;
23496;SDS011;11925;48.122;11.560;2023-05-03T09:40:57;22.77;;;14.55;;
23496;SDS011;11925;48.122;11.560;2023-05-03T09:43:26;23.98;;;14.57;;
23496;SDS011;11925;48.122;11.560;2023-05-03T09:46:06;22.40;;;15.55;;
23496;SDS011;11925;48.122;11.560;2023-05-03T09:48:35;22.52;;;14.77;;
23496;SDS011;11925;48.122;11.560;2023-05-03T09:51:05;20.52;;;14.18;;
23496;SDS011;11925;48.122;11.560;2023-05-03T09:53:35;22.90;;;14.55;;
23496;SDS011;11925;48.122;11.560;2023-05-03T09:56:05;21.55;;;14.90;;
23496;SDS011;11925;48.122;11.560;2023-05-03T09:58:35;23.63;;;15.07;;
23496;SDS011;11925;48.122;11.560;2023-05-03T10:01:04;21.48;;;14.68;;
23496;SDS011;11925;48.122;11.560;2023-05-03T10:03:33;22.50;;;14.75;;
23496;SDS011;11925;48.122;11.560;2023-05-03T10:06:13;21.88;;;14.70;;
23496;SDS011;11925;48.122;11.560;2023-05-03T10:08:51;22.95;;;14.07;;
23496;SDS011;11925;48.122;11.560;2023-05-03T10:11:25;19.13;;;13.57;;
23496;SDS011;11925;48.122;11.560;2023-05-03T10:13:54;21.48;;;14.05;;
23496;SDS011;11925;48.122;11.560;2023-05-03T10:16:24;19.52;;;13.95;;
23496;SDS011;11925;48.122;11.560;2023-05-03T10:18:58;24.02;;;15.48;;
23496;SDS011;11925;48.122;11.560;2023-05-03T10:21:34;21.73;;;14.73;;
23496;SDS011;11925;48.122;11.560;2023-05-03T10:24:11;20.33;;;14.40;;
23496;SDS011;11925;48.122;11.560;2023-05-03T10:26:41;22.35;;;15.73;;
23496;SDS011;11925;48.122;11.560;2023-05-03T10:34:56;22.27;;;15.55;;
23496;SDS011;11925;48.122;11.560;2023-05-03T10:37:32;23.35;;;16.02;;
23496;SDS011;11925;48.122;11.560;2023-05-03T10:40:09;22.45;;;15.45;;
23496;SDS011;11925;48.122;11.560;2023-05-03T10:42:42;22.75;;;16.50;;
23496;SDS011;11925;48.122;11.560;2023-05-03T10:45:24;22.88;;;15.63;;
23496;SDS011;11925;48.122;11.560;2023-05-03T10:50:46;26.27;;;16.65;;
23496;SDS011;11925;48.122;11.560;2023-05-03T10:56:05;23.20;;;16.83;;
23496;SDS011;11925;48.122;11.560;2023-05-03T10:58:35;23.95;;;16.42;;
23496;SDS011;11925;48.122;11.560;2023-05-03T11:01:05;25.55;;;16.08;;
23496;SDS011;11925;48.122;11.560;2023-05-03T11:03:49;22.20;;;15.97;;
23496;SDS011;11925;48.122;11.560;2023-05-03T11:06:28;25.83;;;17.95;;
23496;SDS011;11925;48.122;11.560;2023-05-03T11:09:00;24.30;;;16.73;;
23496;SDS011;11925;48.122;11.560;2023-05-03T11:13:58;25.92;;;16.80;;
23496;SDS011;11925;48.122;11.560;2023-05-03T11:16:27;25.13;;;16.73;;
23496;SDS011;11925;48.122;11.560;2023-05-03T11:18:56;27.25;;;17.63;;
23496;SDS011;11925;48.122;11.560;2023-05-03T11:21:25;25.70;;;16.85;;
23496;SDS011;11925;48.122;11.560;2023-05-03T11:23:54;25.55;;;17.27;;
23496;SDS011;11925;48.122;11.560;2023-05-03T11:26:26;26.52;;;17.20;;
23496;SDS011;11925;48.122;11.560;2023-05-03T11:28:54;23.88;;;16.17;;
23496;SDS011;11925;48.122;11.560;2023-05-03T11:31:22;23.30;;;16.73;;
23496;SDS011;11925;48.122;11.560;2023-05-03T11:33:51;24.40;;;16.52;;
23496;SDS011;11925;48.122;11.560;2023-05-03T11:36:20;23.83;;;15.98;;
23496;SDS011;11925;48.122;11.560;2023-05-03T11:38:48;25.23;;;16.65;;
23496;SDS011;11925;48.122;11.560;2023-05-03T11:41:17;27.42;;;17.10;;
23496;SDS011;11925;48.122;11.560;2023-05-03T11:43:47;25.33;;;17.20;;
23496;SDS011;11925;48.122;11.560;2023-05-03T11:46:34;26.45;;;16.98;;
23496;SDS011;11925;48.122;11.560;2023-05-03T11:49:05;25.70;;;18.05;;
23496;SDS011;11925;48.122;11.560;2023-05-03T11:51:33;25.25;;;16.77;;
23496;SDS011;11925;48.122;11.560;2023-05-03T11:54:03;25.25;;;16.40;;
23496;SDS011;11925;48.122;11.560;2023-05-03T11:56:50;22.90;;;16.00;;
23496;SDS011;11925;48.122;11.560;2023-05-03T11:59:33;27.05;;;17.20;;
23496;SDS011;11925;48.122;11.560;2023-05-03T12:02:02;24.23;;;16.27;;
23496;SDS011;11925;48.122;11.560;2023-05-03T12:04:31;26.02;;;16.65;;
23496;SDS011;11925;48.122;11.560;2023-05-03T12:07:02;26.40;;;17.05;;
23496;SDS011;11925;48.122;11.560;2023-05-03T12:09:31;24.95;;;16.80;;
23496;SDS011;11925;48.122;11.560;2023-05-03T12:12:01;25.23;;;16.25;;
23496;SDS011;11925;48.122;11.560;2023-05-03T12:14:55;26.73;;;16.63;;
23496;SDS011;11925;48.122;11.560;2023-05-03T12:17:38;24.73;;;16.70;;
23496;SDS011;11925;48.122;11.560;2023-05-03T12:20:14;25.90;;;16.65;;
23496;SDS011;11925;48.122;11.560;2023-05-03T12:23:04;28.52;;;16.50;;
23496;SDS011;11925;48.122;11.560;2023-05-03T12:25:36;23.98;;;16.80;;
23496;SDS011;11925;48.122;11.560;2023-05-03T12:28:08;26.88;;;16.92;;
23496;SDS011;11925;48.122;11.560;2023-05-03T12:30:41;26.08;;;16.42;;
23496;SDS011;11925;48.122;11.560;2023-05-03T12:33:11;25.08;;;16.33;;
23496;SDS011;11925;48.122;11.560;2023-05-03T12:35:42;24.70;;;16.27;;
23496;SDS011;11925;48.122;11.560;2023-05-03T12:38:13;24.92;;;15.50;;
23496;SDS011;11925;48.122;11.560;2023-05-03T12:40:45;23.10;;;15.70;;
23496;SDS011;11925;48.122;11.560;2023-05-03T12:43:13;21.83;;;15.15;;
23496;SDS011;11925;48.122;11.560;2023-05-03T12:45:43;22.90;;;15.50;;
23496;SDS011;11925;48.122;11.560;2023-05-03T12:48:18;19.95;;;14.38;;
23496;SDS011;11925;48.122;11.560;2023-05-03T12:50:50;20.00;;;13.80;;
23496;SDS011;11925;48.122;11.560;2023-05-03T12:53:39;23.73;;;14.57;;
23496;SDS011;11925;48.122;11.560;2023-05-03T12:56:12;21.20;;;15.00;;
23496;SDS011;11925;48.122;11.560;2023-05-03T12:58:41;20.50;;;14.20;;
23496;SDS011;11925;48.122;11.560;2023-05-03T13:01:34;21.65;;;14.38;;
23496;SDS011;11925;48.122;11.560;2023-05-03T13:04:23;19.63;;;12.93;;
23496;SDS011;11925;48.122;11.560;2023-05-03T13:06:55;17.77;;;13.55;;
23496;SDS011;11925;48.122;11.560;2023-05-03T13:09:26;18.58;;;12.52;;
23496;SDS011;11925;48.122;11.560;2023-05-03T13:12:14;19.50;;;13.40;;
23496;SDS011;11925;48.122;11.560;2023-05-03T13:17:16;19.00;;;12.38;;
23496;SDS011;11925;48.122;11.560;2023-05-03T13:19:48;17.92;;;12.82;;
23496;SDS011;11925;48.122;11.560;2023-05-03T13:22:18;17.13;;;12.30;;
23496;SDS011;11925;48.122;11.560;2023-05-03T13:24:46;18.05;;;13.00;;
23496;SDS011;11925;48.122;11.560;2023-05-03T13:27:15;20.23;;;13.73;;
23496;SDS011;11925;48.122;11.560;2023-05-03T13:29:44;17.65;;;13.00;;
23496;SDS011;11925;48.122;11.560;2023-05-03T13:32:16;19.37;;;12.73;;
23496;SDS011;11925;48.122;11.560;2023-05-03T13:34:45;16.35;;;12.55;;
23496;SDS011;11925;48.122;11.560;2023-05-03T13:39:44;18.60;;;12.85;;
23496;SDS011;11925;48.122;11.560;2023-05-03T13:42:13;16.67;;;12.55;;
23496;SDS011;11925;48.122;11.560;2023-05-03T13:44:43;18.55;;;12.65;;
23496;SDS011;11925;48.122;11.560;2023-05-03T13:47:12;16.08;;;12.68;;
23496;SDS011;11925;48.122;11.560;2023-05-03T13:49:42;15.85;;;11.75;;
23496;SDS011;11925;48.122;11.560;2023-05-03T13:52:11;17.73;;;12.38;;
23496;SDS011;11925;48.122;11.560;2023-05-03T13:54:39;17.35;;;12.10;;
23496;SDS011;11925;48.122;11.560;2023-05-03T13:57:08;16.05;;;12.43;;
23496;SDS011;11925;48.122;11.560;2023-05-03T13:59:36;18.00;;;12.98;;
23496;SDS011;11925;48.122;11.560;2023-05-03T14:02:05;18.27;;;12.52;;
23496;SDS011;11925;48.122;11.560;2023-05-03T14:04:33;17.23;;;12.43;;
23496;SDS011;11925;48.122;11.560;2023-05-03T14:07:03;17.20;;;12.50;;
23496;SDS011;11925;48.122;11.560;2023-05-03T14:09:31;15.77;;;12.00;;
23496;SDS011;11925;48.122;11.560;2023-05-03T14:12:05;16.48;;;12.48;;
23496;SDS011;11925;48.122;11.560;2023-05-03T14:14:34;16.45;;;13.00;;
23496;SDS011;11925;48.122;11.560;2023-05-03T14:17:03;16.90;;;13.38;;
23496;SDS011;11925;48.122;11.560;2023-05-03T14:19:33;16.25;;;12.10;;
23496;SDS011;11925;48.122;11.560;2023-05-03T14:22:03;15.38;;;11.70;;
23496;SDS011;11925;48.122;11.560;2023-05-03T14:24:32;17.00;;;13.13;;
23496;SDS011;11925;48.122;11.560;2023-05-03T14:27:04;15.32;;;11.77;;
23496;SDS011;11925;48.122;11.560;2023-05-03T14:29:34;13.80;;;10.90;;
23496;SDS011;11925;48.122;11.560;2023-05-03T14:32:02;14.10;;;11.63;;
23496;SDS011;11925;48.122;11.560;2023-05-03T14:34:31;15.38;;;11.60;;
23496;SDS011;11925;48.122;11.560;2023-05-03T14:36:59;16.08;;;10.93;;
23496;SDS011;11925;48.122;11.560;2023-05-03T14:39:29;16.23;;;11.15;;
23496;SDS011;11925;48.122;11.560;2023-05-03T14:41:58;13.02;;;9.70;;
23496;SDS011;11925;48.122;11.560;2023-05-03T14:44:26;15.73;;;10.50;;
23496;SDS011;11925;48.122;11.560;2023-05-03T14:46:54;13.27;;;10.30;;
23496;SDS011;11925;48.122;11.560;2023-05-03T14:49:24;12.48;;;10.05;;
23496;SDS011;11925;48.122;11.560;2023-05-03T14:51:52;12.80;;;9.77;;
23496;SDS011;11925;48.122;11.560;2023-05-03T14:54:21;12.80;;;10.13;;
23496;SDS011;11925;48.122;11.560;2023-05-03T14:56:50;11.27;;;9.35;;
23496;SDS011;11925;48.122;11.560;2023-05-03T14:59:19;12.00;;;9.38;;
23496;SDS011;11925;48.122;11.560;2023-05-03T15:01:49;10.15;;;8.50;;
23496;SDS011;11925;48.122;11.560;2023-05-03T15:04:19;11.13;;;8.63;;